Time;durP1;ratioP1;P1;durP2;ratioP2;P2;SDS_P1;SDS_P2;PMS_P1;PMS_P2;Temp;Humidity;BMP_temperature;BMP_pressure;BME280_temperature;BME280_humidity;BME280_pressure;Samples;Min_cycle;Max_cycle;Signal;HPM_P1;HPM_P2
2023/02/03 00:01:45;;;;;;;0.40;0.40;;;4.00;99.90;;;;;;5053397;28;20808;-71
2023/02/03 00:04:11;;;;;;;0.40;0.40;;;4.10;99.90;;;;;;5054404;28;20168;-71
2023/02/03 00:06:36;;;;;;;4.53;0.50;;;4.10;99.90;;;;;;5054992;28;20541;-70
2023/02/03 00:09:02;;;;;;;0.90;0.60;;;4.20;99.90;;;;;;5053838;28;20627;-71
2023/02/03 00:11:31;;;;;;;1.17;1.17;;;4.30;99.90;;;;;;5055309;28;20194;-71
2023/02/03 00:13:57;;;;;;;0.40;0.40;;;4.40;99.90;;;;;;5055174;28;20270;-71
2023/02/03 00:16:23;;;;;;;0.30;0.30;;;4.40;99.90;;;;;;5055324;28;20295;-71
2023/02/03 00:18:49;;;;;;;0.60;0.60;;;4.40;99.90;;;;;;5055408;28;20181;-70
2023/02/03 00:21:15;;;;;;;1.43;1.33;;;4.50;99.90;;;;;;5055065;28;20212;-71
2023/02/03 00:23:41;;;;;;;0.40;0.40;;;4.50;99.90;;;;;;5055029;28;20212;-70
2023/02/03 00:26:13;;;;;;;0.40;0.40;;;4.60;99.90;;;;;;5055348;28;20178;-70
2023/02/03 00:28:39;;;;;;;1.48;1.38;;;4.70;99.90;;;;;;5055292;28;20193;-70
2023/02/03 00:31:05;;;;;;;0.30;0.30;;;4.60;99.90;;;;;;5054979;28;20224;-70
2023/02/03 00:33:32;;;;;;;0.50;0.50;;;4.60;99.90;;;;;;5054768;28;20244;-70
2023/02/03 00:36:03;;;;;;;0.95;0.95;;;4.70;99.90;;;;;;5054878;28;20511;-70
2023/02/03 00:38:28;;;;;;;1.35;1.35;;;4.60;99.90;;;;;;5054992;28;20205;-70
2023/02/03 00:40:54;;;;;;;0.30;0.30;;;4.50;99.90;;;;;;5054746;28;20206;-71
2023/02/03 00:43:20;;;;;;;0.30;0.30;;;4.50;99.90;;;;;;5054234;28;20245;-71
2023/02/03 00:45:46;;;;;;;0.40;0.40;;;4.40;99.90;;;;;;5055274;28;20171;-70
2023/02/03 00:48:12;;;;;;;0.40;0.40;;;4.40;99.90;;;;;;5054601;28;20220;-71
2023/02/03 00:50:37;;;;;;;11.33;1.47;;;4.50;99.90;;;;;;5054573;28;20605;-70
2023/02/03 00:53:03;;;;;;;0.30;0.30;;;4.50;99.90;;;;;;5054750;28;20252;-70
2023/02/03 00:55:28;;;;;;;0.77;0.77;;;4.50;99.90;;;;;;5054630;28;20173;-70
2023/02/03 00:57:54;;;;;;;0.80;0.80;;;4.50;99.90;;;;;;5054701;28;20181;-70
2023/02/03 01:00:20;;;;;;;0.83;0.83;;;4.50;99.90;;;;;;5054521;28;20209;-71
2023/02/03 01:02:46;;;;;;;0.40;0.40;;;4.60;99.90;;;;;;5054273;28;20166;-71
2023/02/03 01:05:12;;;;;;;0.40;0.40;;;4.60;99.90;;;;;;5054614;28;20405;-70
2023/02/03 01:07:38;;;;;;;0.40;0.40;;;4.50;99.90;;;;;;5054403;28;20584;-70
2023/02/03 01:10:04;;;;;;;0.40;0.40;;;4.40;99.90;;;;;;5054328;28;20253;-70
2023/02/03 01:12:30;;;;;;;0.40;0.40;;;4.40;99.90;;;;;;5054385;28;20184;-70
2023/02/03 01:14:56;;;;;;;0.60;0.60;;;4.40;99.90;;;;;;5054427;28;20170;-71
2023/02/03 01:17:22;;;;;;;0.30;0.30;;;4.40;99.90;;;;;;5054061;28;20401;-70
2023/02/03 01:19:49;;;;;;;0.40;0.40;;;4.50;99.90;;;;;;5053963;28;20458;-70
2023/02/03 01:22:15;;;;;;;0.40;0.40;;;4.50;99.90;;;;;;5053929;28;20178;-71
2023/02/03 01:24:41;;;;;;;0.40;0.40;;;4.60;99.90;;;;;;5054152;28;20282;-70
2023/02/03 01:27:06;;;;;;;0.40;0.40;;;4.60;99.90;;;;;;5054217;28;20197;-70
2023/02/03 01:29:32;;;;;;;0.40;0.40;;;4.50;99.90;;;;;;5054143;28;20178;-70
2023/02/03 01:31:58;;;;;;;0.40;0.40;;;4.50;99.90;;;;;;5053594;28;20194;-71
2023/02/03 01:34:23;;;;;;;0.50;0.50;;;4.40;99.90;;;;;;5053908;28;20577;-71
2023/02/03 01:36:49;;;;;;;0.40;0.40;;;4.50;99.90;;;;;;5054069;28;20687;-70
2023/02/03 01:39:15;;;;;;;0.40;0.40;;;4.20;99.90;;;;;;5054106;28;20215;-71
2023/02/03 01:41:41;;;;;;;0.40;0.40;;;4.10;99.90;;;;;;5053443;28;20201;-70
2023/02/03 01:44:39;;;;;;;0.60;0.60;;;4.30;99.90;;;;;;5053715;28;20170;-70
2023/02/03 01:47:12;;;;;;;0.90;0.80;;;4.30;99.90;;;;;;5054022;28;20631;-70
2023/02/03 01:49:39;;;;;;;0.40;0.40;;;4.30;99.90;;;;;;5053729;28;20261;-71
2023/02/03 01:52:05;;;;;;;0.30;0.30;;;4.40;99.90;;;;;;5053557;28;20660;-70
2023/02/03 01:54:36;;;;;;;1.07;1.07;;;4.40;99.90;;;;;;5052965;28;20198;-70
2023/02/03 01:57:06;;;;;;;0.40;0.40;;;4.30;99.90;;;;;;5053564;28;20158;-70
2023/02/03 01:59:34;;;;;;;0.30;0.30;;;4.30;99.90;;;;;;5053736;28;20177;-70
2023/02/03 02:02:02;;;;;;;0.47;0.47;;;4.30;99.90;;;;;;5053422;28;20193;-71
2023/02/03 02:04:38;;;;;;;1.25;1.15;;;4.40;99.90;;;;;;5053636;28;20177;-70
2023/02/03 02:07:05;;;;;;;0.40;0.40;;;4.40;99.90;;;;;;5053562;28;20169;-70
2023/02/03 02:09:31;;;;;;;0.32;0.32;;;4.40;99.90;;;;;;5053610;28;20201;-71
2023/02/03 02:11:57;;;;;;;1.67;1.60;;;5.10;99.90;;;;;;5053130;28;20655;-70
2023/02/03 02:14:22;;;;;;;0.40;0.40;;;4.50;99.90;;;;;;5053408;28;20431;-70
2023/02/03 02:17:02;;;;;;;0.40;0.40;;;4.40;99.90;;;;;;5053532;28;20227;-70
2023/02/03 02:19:42;;;;;;;0.40;0.40;;;4.40;99.90;;;;;;5053609;28;20521;-70
2023/02/03 02:22:17;;;;;;;0.38;0.38;;;4.40;99.90;;;;;;5053211;28;20684;-70
2023/02/03 02:25:22;;;;;;;0.38;0.38;;;4.30;99.90;;;;;;5053305;28;20239;-70
2023/02/03 02:28:06;;;;;;;0.38;0.38;;;4.20;99.90;;;;;;5051363;28;20219;-71
2023/02/03 02:30:51;;;;;;;0.73;0.73;;;4.30;99.90;;;;;;5053166;28;20193;-70
2023/02/03 02:33:40;;;;;;;0.40;0.40;;;4.30;99.90;;;;;;5053007;28;20228;-70
2023/02/03 02:36:27;;;;;;;0.40;0.40;;;4.40;99.90;;;;;;5053250;28;20224;-70
2023/02/03 02:39:27;;;;;;;0.50;0.50;;;4.30;99.90;;;;;;5053608;28;20177;-70
2023/02/03 02:42:03;;;;;;;1.02;1.02;;;4.30;99.90;;;;;;5052835;28;20281;-70
2023/02/03 02:44:40;;;;;;;0.40;0.40;;;4.30;99.90;;;;;;5053322;28;20168;-69
2023/02/03 02:47:21;;;;;;;0.40;0.40;;;4.40;99.90;;;;;;5053333;28;20197;-70
2023/02/03 02:49:59;;;;;;;0.50;0.50;;;4.30;99.90;;;;;;5053061;28;20177;-70
2023/02/03 02:52:29;;;;;;;0.40;0.40;;;4.30;99.90;;;;;;5052831;28;20573;-70
2023/02/03 02:55:00;;;;;;;0.40;0.40;;;4.30;99.90;;;;;;5053428;28;20519;-70
2023/02/03 02:57:27;;;;;;;0.40;0.40;;;4.20;99.90;;;;;;5053627;28;20171;-71
2023/02/03 02:59:54;;;;;;;0.40;0.40;;;4.20;99.90;;;;;;5053003;28;20181;-70
2023/02/03 03:02:19;;;;;;;0.40;0.40;;;4.30;99.90;;;;;;5052722;28;20240;-70
2023/02/03 03:04:47;;;;;;;0.90;0.90;;;4.30;99.90;;;;;;5052991;28;20597;-70
2023/02/03 03:07:19;;;;;;;0.65;0.63;;;4.30;99.90;;;;;;5054775;28;20405;-71
2023/02/03 03:09:59;;;;;;;0.75;0.75;;;4.40;99.90;;;;;;5056808;28;20174;-70
2023/02/03 03:12:32;;;;;;;0.40;0.40;;;4.40;99.90;;;;;;5056533;28;20174;-70
2023/02/03 03:15:04;;;;;;;0.40;0.40;;;4.50;99.90;;;;;;5056739;28;20166;-70
2023/02/03 03:17:35;;;;;;;0.40;0.40;;;4.50;99.90;;;;;;5056707;28;20268;-70
2023/02/03 03:20:11;;;;;;;0.50;0.50;;;4.50;99.90;;;;;;5056527;28;20185;-70
2023/02/03 03:22:46;;;;;;;0.30;0.30;;;4.30;99.90;;;;;;5056436;28;20590;-70
2023/02/03 03:25:24;;;;;;;0.30;0.30;;;4.10;99.90;;;;;;5056773;28;20165;-70
2023/02/03 03:27:57;;;;;;;1.65;1.55;;;3.90;99.90;;;;;;5056587;28;20174;-70
2023/02/03 03:30:27;;;;;;;0.50;0.50;;;4.00;99.90;;;;;;5056362;28;20202;-70
2023/02/03 03:32:52;;;;;;;2.50;2.40;;;3.90;99.90;;;;;;5055813;28;20166;-70
2023/02/03 03:35:18;;;;;;;0.43;0.43;;;3.90;99.90;;;;;;5056166;28;20179;-70
2023/02/03 03:37:55;;;;;;;0.93;0.63;;;3.80;99.90;;;;;;5055926;28;20486;-70
2023/02/03 03:40:32;;;;;;;0.55;0.55;;;3.90;99.90;;;;;;5055961;28;20459;-70
2023/02/03 03:43:29;;;;;;;0.75;0.75;;;4.00;99.90;;;;;;5055853;28;20162;-70
2023/02/03 03:45:59;;;;;;;0.75;0.75;;;4.10;99.90;;;;;;5055250;28;20187;-70
2023/02/03 03:48:41;;;;;;;0.70;0.70;;;4.10;99.90;;;;;;5055954;28;20166;-70
2023/02/03 03:51:31;;;;;;;0.60;0.60;;;4.20;99.90;;;;;;5055966;28;20265;-70
2023/02/03 03:54:03;;;;;;;0.40;0.40;;;4.30;99.90;;;;;;5055630;28;20232;-70
2023/02/03 03:56:40;;;;;;;0.50;0.50;;;4.30;99.90;;;;;;5056156;28;20174;-70
2023/02/03 03:59:07;;;;;;;0.50;0.50;;;4.40;99.90;;;;;;5055822;28;20544;-70
2023/02/03 04:01:33;;;;;;;0.65;0.65;;;4.40;99.90;;;;;;5054195;28;20206;-70
2023/02/03 04:04:04;;;;;;;0.70;0.50;;;4.40;99.90;;;;;;5055556;28;20216;-70
2023/02/03 04:06:30;;;;;;;0.70;0.63;;;4.30;99.90;;;;;;5055767;28;20172;-70
2023/02/03 04:08:56;;;;;;;0.37;0.37;;;4.40;99.90;;;;;;5055735;28;20628;-71
2023/02/03 04:14:05;;;;;;;0.30;0.30;;;4.40;99.90;;;;;;5055504;28;20438;-70
2023/02/03 04:16:31;;;;;;;0.50;0.50;;;4.40;99.90;;;;;;5054268;28;20639;-70
2023/02/03 04:18:57;;;;;;;2.50;2.30;;;4.30;99.90;;;;;;5054443;28;20205;-70
2023/02/03 04:21:22;;;;;;;0.60;0.60;;;4.40;99.90;;;;;;5055158;28;20209;-70
2023/02/03 04:23:49;;;;;;;0.60;0.60;;;4.40;99.90;;;;;;5055165;28;20170;-70
2023/02/03 04:26:14;;;;;;;0.40;0.40;;;4.40;99.90;;;;;;5055290;28;20177;-70
2023/02/03 04:28:40;;;;;;;0.40;0.40;;;4.40;99.90;;;;;;5055355;28;20171;-70
2023/02/03 04:31:06;;;;;;;0.30;0.30;;;4.40;99.90;;;;;;5055094;28;20414;-70
2023/02/03 04:33:31;;;;;;;2.10;0.80;;;4.40;99.90;;;;;;5054931;28;20166;-70
2023/02/03 04:35:57;;;;;;;0.50;0.50;;;4.50;99.90;;;;;;5055160;28;20170;-70
2023/02/03 04:38:22;;;;;;;0.80;0.80;;;4.40;99.90;;;;;;5054939;28;20216;-70
2023/02/03 04:40:48;;;;;;;9.20;1.77;;;4.30;99.90;;;;;;5054752;28;20190;-70
2023/02/03 04:43:15;;;;;;;0.47;0.47;;;4.30;99.90;;;;;;5054708;28;20213;-70
2023/02/03 04:45:41;;;;;;;0.68;0.50;;;4.40;99.90;;;;;;5054949;28;20397;-70
2023/02/03 04:48:07;;;;;;;0.30;0.30;;;4.30;99.90;;;;;;5054770;28;20182;-70
2023/02/03 04:50:32;;;;;;;0.30;0.30;;;4.20;99.90;;;;;;5054711;28;20186;-69
2023/02/03 04:52:59;;;;;;;0.57;0.57;;;4.20;99.90;;;;;;5054604;28;20269;-70
2023/02/03 04:55:25;;;;;;;0.60;0.60;;;4.20;99.90;;;;;;5054751;28;20217;-70
2023/02/03 04:57:55;;;;;;;0.65;0.50;;;4.20;99.90;;;;;;5054764;28;20602;-70
2023/02/03 05:00:21;;;;;;;0.30;0.30;;;4.30;99.90;;;;;;5054986;28;20190;-70
2023/02/03 05:02:46;;;;;;;5.80;1.37;;;4.30;99.90;;;;;;5054470;28;20580;-70
2023/02/03 05:05:12;;;;;;;0.40;0.40;;;4.30;99.90;;;;;;5054491;28;20166;-70
2023/02/03 05:07:37;;;;;;;0.50;0.50;;;4.30;99.90;;;;;;5054490;28;20158;-70
2023/02/03 05:10:03;;;;;;;0.50;0.50;;;4.40;99.90;;;;;;5054578;28;20559;-70
2023/02/03 05:12:29;;;;;;;0.30;0.30;;;4.40;99.90;;;;;;5054120;28;20258;-70
2023/02/03 05:14:54;;;;;;;2.30;0.87;;;4.30;99.90;;;;;;5054627;28;20408;-69
2023/02/03 05:17:20;;;;;;;0.40;0.40;;;4.10;99.90;;;;;;5054184;28;20171;-70
2023/02/03 05:19:46;;;;;;;0.40;0.40;;;4.00;99.90;;;;;;5054212;28;20202;-70
2023/02/03 05:22:11;;;;;;;0.40;0.40;;;3.90;99.90;;;;;;5053782;28;20272;-70
2023/02/03 05:24:37;;;;;;;0.40;0.40;;;3.90;99.90;;;;;;5054076;28;20653;-70
2023/02/03 05:27:02;;;;;;;0.43;0.43;;;3.70;99.90;;;;;;5054236;28;20181;-69
2023/02/03 05:29:28;;;;;;;0.40;0.40;;;3.70;99.90;;;;;;5054011;28;20167;-70
2023/02/03 05:31:54;;;;;;;0.30;0.30;;;3.70;99.90;;;;;;5053693;28;20273;-70
2023/02/03 05:34:19;;;;;;;0.60;0.60;;;3.70;99.90;;;;;;5054293;28;20631;-70
2023/02/03 05:36:45;;;;;;;0.40;0.40;;;3.90;99.90;;;;;;5053801;28;20178;-70
2023/02/03 05:39:10;;;;;;;0.30;0.30;;;3.90;99.90;;;;;;5054159;28;20178;-70
2023/02/03 05:41:51;;;;;;;0.40;0.40;;;3.90;99.90;;;;;;5053817;28;20190;-70
2023/02/03 05:44:25;;;;;;;0.38;0.38;;;3.70;99.90;;;;;;5053747;28;20180;-70
2023/02/03 05:46:55;;;;;;;0.40;0.40;;;3.60;99.90;;;;;;5053891;28;20201;-70
2023/02/03 05:49:22;;;;;;;0.55;0.55;;;3.60;99.90;;;;;;5053871;28;20171;-70
2023/02/03 05:51:48;;;;;;;0.40;0.40;;;3.60;99.90;;;;;;5053321;28;20201;-70
2023/02/03 05:54:15;;;;;;;0.35;0.35;;;3.60;99.90;;;;;;5053827;28;20176;-70
2023/02/03 05:56:40;;;;;;;0.40;0.40;;;3.70;99.90;;;;;;5053554;28;20178;-69
2023/02/03 05:59:06;;;;;;;0.63;0.63;;;3.80;99.90;;;;;;5053761;28;20176;-70
2023/02/03 06:01:33;;;;;;;0.40;0.40;;;3.90;99.90;;;;;;5053537;28;20202;-70
2023/02/03 06:03:59;;;;;;;0.60;0.60;;;4.00;99.90;;;;;;5053420;28;20158;-70
2023/02/03 06:06:26;;;;;;;0.53;0.53;;;3.80;99.90;;;;;;5053569;28;20523;-70
2023/02/03 06:08:55;;;;;;;5.18;4.20;;;3.90;99.90;;;;;;5053589;28;20872;-70
2023/02/03 06:11:23;;;;;;;0.32;0.32;;;4.00;99.90;;;;;;5053264;28;20189;-70
2023/02/03 06:13:49;;;;;;;0.50;0.50;;;4.20;99.90;;;;;;5053322;28;20247;-70
2023/02/03 06:16:15;;;;;;;2.63;0.73;;;4.20;99.90;;;;;;5053419;28;20178;-70
2023/02/03 06:18:40;;;;;;;0.70;0.70;;;4.30;99.90;;;;;;5053454;28;20662;-70
2023/02/03 06:21:06;;;;;;;0.57;0.57;;;4.30;99.90;;;;;;5053173;28;20455;-70
2023/02/03 06:23:32;;;;;;;0.33;0.33;;;4.40;99.90;;;;;;5052929;28;20627;-70
2023/02/03 06:25:59;;;;;;;0.80;0.80;;;4.40;99.90;;;;;;5053117;28;20224;-70
2023/02/03 06:28:25;;;;;;;0.40;0.40;;;4.40;99.90;;;;;;5051634;28;20171;-70
2023/02/03 06:30:51;;;;;;;0.38;0.38;;;4.50;99.90;;;;;;5052798;28;20617;-69
2023/02/03 06:33:18;;;;;;;1.10;1.10;;;4.30;99.90;;;;;;5053203;28;20196;-70
2023/02/03 06:35:44;;;;;;;0.35;0.35;;;4.30;99.90;;;;;;5053161;28;20174;-70
2023/02/03 06:38:10;;;;;;;0.87;0.87;;;4.20;99.90;;;;;;5052977;28;20570;-69
2023/02/03 06:40:36;;;;;;;0.40;0.40;;;4.20;99.90;;;;;;5053484;28;20460;-70
2023/02/03 06:43:01;;;;;;;0.50;0.50;;;4.20;99.90;;;;;;5057032;28;20170;-70
2023/02/03 06:45:27;;;;;;;0.40;0.40;;;4.20;99.90;;;;;;5057179;28;20505;-69
2023/02/03 06:47:53;;;;;;;0.40;0.40;;;4.10;99.90;;;;;;5057165;28;20397;-70
2023/02/03 06:50:19;;;;;;;0.50;0.50;;;4.00;99.90;;;;;;5057072;28;20486;-69
2023/02/03 06:52:45;;;;;;;0.30;0.30;;;3.90;99.90;;;;;;5056641;28;20643;-70
2023/02/03 06:55:10;;;;;;;0.40;0.40;;;3.80;99.90;;;;;;5056907;28;20170;-69
2023/02/03 06:57:43;;;;;;;1.07;0.97;;;4.20;99.90;;;;;;5056819;28;20219;-70
2023/02/03 07:00:09;;;;;;;1.95;1.85;;;4.00;99.90;;;;;;5056888;28;20311;-70
2023/02/03 07:02:35;;;;;;;0.50;0.50;;;3.80;99.90;;;;;;5056488;28;20205;-70
2023/02/03 07:05:01;;;;;;;0.30;0.30;;;3.60;99.90;;;;;;5056472;28;20181;-69
2023/02/03 07:07:27;;;;;;;0.40;0.40;;;;;;;;;;5056558;28;20176;-70
2023/02/03 07:09:53;;;;;;;0.40;0.40;;;4.00;99.90;;;;;;5056375;28;20166;-70
2023/02/03 07:12:19;;;;;;;0.70;0.70;;;4.60;99.90;;;;;;5056550;28;20257;-70
2023/02/03 07:14:44;;;;;;;0.40;0.40;;;4.00;99.90;;;;;;5056702;28;20277;-69
2023/02/03 07:17:10;;;;;;;0.40;0.40;;;4.00;99.90;;;;;;5056720;28;20171;-70
2023/02/03 07:19:36;;;;;;;0.40;0.40;;;4.00;99.90;;;;;;5056515;28;20173;-70
2023/02/03 07:22:01;;;;;;;0.40;0.40;;;3.80;99.90;;;;;;5055911;28;20280;-70
2023/02/03 07:24:27;;;;;;;0.40;0.40;;;3.80;99.90;;;;;;5056347;28;20250;-69
2023/02/03 07:26:52;;;;;;;0.33;0.33;;;3.90;99.90;;;;;;5056509;28;20166;-70
2023/02/03 07:29:18;;;;;;;0.30;0.30;;;3.90;99.90;;;;;;5056410;28;20163;-70
2023/02/03 07:31:44;;;;;;;0.57;0.57;;;3.90;99.90;;;;;;5055947;28;20225;-70
2023/02/03 07:34:09;;;;;;;0.73;0.73;;;4.00;99.90;;;;;;5056293;28;20643;-70
2023/02/03 07:36:35;;;;;;;0.40;0.40;;;4.10;99.90;;;;;;5056137;28;20702;-71
2023/02/03 07:39:00;;;;;;;0.40;0.40;;;4.20;99.90;;;;;;5056292;28;20546;-70
2023/02/03 07:41:26;;;;;;;0.50;0.50;;;4.30;99.90;;;;;;5055947;28;20667;-70
2023/02/03 07:43:52;;;;;;;0.40;0.40;;;4.00;99.90;;;;;;5055885;28;20245;-70
2023/02/03 07:46:17;;;;;;;0.40;0.40;;;4.10;99.90;;;;;;5056101;28;20249;-70
2023/02/03 07:48:43;;;;;;;0.70;0.70;;;4.20;99.90;;;;;;5056075;28;20163;-70
2023/02/03 07:51:08;;;;;;;0.40;0.40;;;4.20;99.90;;;;;;5055635;28;20212;-70
2023/02/03 07:53:34;;;;;;;0.40;0.40;;;4.20;99.90;;;;;;5054510;28;20324;-71
2023/02/03 07:56:04;;;;;;;0.40;0.40;;;4.30;99.90;;;;;;5056328;28;20181;-69
2023/02/03 07:58:30;;;;;;;0.90;0.82;;;4.30;99.90;;;;;;5055764;28;20257;-70
2023/02/03 08:00:56;;;;;;;0.30;0.30;;;4.30;99.90;;;;;;5055565;28;20679;-72
2023/02/03 08:03:22;;;;;;;0.75;0.75;;;4.30;99.90;;;;;;5055380;28;20173;-70
2023/02/03 08:05:49;;;;;;;0.40;0.40;;;4.10;99.90;;;;;;5054383;28;20178;-70
2023/02/03 08:08:15;;;;;;;0.30;0.30;;;4.60;99.90;;;;;;5056032;28;20459;-70
2023/02/03 08:10:41;;;;;;;0.60;0.60;;;3.90;99.90;;;;;;5055325;28;20201;-70
2023/02/03 08:13:06;;;;;;;0.50;0.50;;;4.00;99.90;;;;;;5055330;28;20178;-70
2023/02/03 08:15:32;;;;;;;0.43;0.43;;;4.10;99.90;;;;;;5055344;28;20209;-70
2023/02/03 08:17:58;;;;;;;0.60;0.60;;;4.20;99.90;;;;;;5055996;28;20567;-70
2023/02/03 08:20:24;;;;;;;0.88;0.88;;;4.30;99.90;;;;;;5055191;28;20225;-70
2023/02/03 08:22:49;;;;;;;0.40;0.40;;;3.90;99.90;;;;;;5055392;28;20209;-70
2023/02/03 08:25:15;;;;;;;0.40;0.40;;;3.90;99.90;;;;;;5055391;28;20170;-70
2023/02/03 08:27:41;;;;;;;5.33;1.07;;;4.10;99.90;;;;;;5055254;28;20181;-70
2023/02/03 08:30:08;;;;;;;0.30;0.30;;;4.30;99.90;;;;;;5055567;28;20178;-70
2023/02/03 08:32:34;;;;;;;0.40;0.40;;;4.50;99.90;;;;;;5055167;28;20181;-70
2023/02/03 08:34:59;;;;;;;0.47;0.47;;;4.60;99.90;;;;;;5055174;28;20635;-70
2023/02/03 08:37:25;;;;;;;0.33;0.33;;;4.50;99.90;;;;;;5054780;28;20240;-70
2023/02/03 08:39:51;;;;;;;0.80;0.80;;;4.40;99.90;;;;;;5054872;28;20249;-70
2023/02/03 08:42:18;;;;;;;0.77;0.77;;;5.20;99.90;;;;;;5053325;28;20194;-70
2023/02/03 08:44:43;;;;;;;0.80;0.80;;;5.00;99.90;;;;;;5055044;28;20174;-69
2023/02/03 08:47:10;;;;;;;0.77;0.77;;;4.60;99.90;;;;;;5053785;28;20174;-70
2023/02/03 08:49:38;;;;;;;0.82;0.82;;;4.60;99.90;;;;;;5054824;28;20512;-70
2023/02/03 08:52:05;;;;;;;0.40;0.40;;;4.70;99.90;;;;;;5054584;28;20190;-70
2023/02/03 08:54:31;;;;;;;0.40;0.40;;;4.70;99.90;;;;;;5054987;28;20245;-72
2023/02/03 08:56:57;;;;;;;0.97;0.97;;;4.70;99.90;;;;;;5055037;28;20654;-69
2023/02/03 08:59:22;;;;;;;0.70;0.70;;;4.90;99.90;;;;;;5054696;28;20257;-70
2023/02/03 09:01:48;;;;;;;0.30;0.30;;;4.80;99.90;;;;;;5052880;28;20197;-70
2023/02/03 09:04:18;;;;;;;0.30;0.30;;;4.80;99.90;;;;;;5054183;28;20401;-72
2023/02/03 09:06:47;;;;;;;0.50;0.50;;;4.80;99.90;;;;;;5052410;28;20177;-72
2023/02/03 09:09:14;;;;;;;1.50;0.68;;;4.60;99.90;;;;;;5054220;28;20166;-72
2023/02/03 09:11:41;;;;;;;0.40;0.40;;;4.70;99.90;;;;;;5054627;28;20247;-72
2023/02/03 09:14:07;;;;;;;0.30;0.30;;;4.80;99.90;;;;;;5054614;28;20221;-70
2023/02/03 09:16:33;;;;;;;0.35;0.35;;;5.00;99.90;;;;;;5054462;28;20643;-69
2023/02/03 09:18:59;;;;;;;0.40;0.40;;;4.90;99.90;;;;;;5054346;28;20185;-69
2023/02/03 09:21:25;;;;;;;0.30;0.30;;;5.00;99.90;;;;;;5054350;28;20453;-70
2023/02/03 09:23:50;;;;;;;0.30;0.30;;;5.00;99.90;;;;;;5054287;28;20771;-73
2023/02/03 09:26:16;;;;;;;0.97;0.97;;;4.90;99.90;;;;;;5054369;28;20665;-71
2023/02/03 09:28:42;;;;;;;0.40;0.40;;;4.80;99.90;;;;;;5054546;28;20616;-70
2023/02/03 09:31:11;;;;;;;0.53;0.53;;;4.90;99.90;;;;;;5053866;28;20202;-72
2023/02/03 09:33:37;;;;;;;0.40;0.40;;;5.00;99.90;;;;;;5053779;28;20170;-72
2023/02/03 09:36:05;;;;;;;0.38;0.38;;;5.20;99.90;;;;;;5053746;28;20232;-72
2023/02/03 09:38:32;;;;;;;0.60;0.50;;;5.30;99.90;;;;;;5054140;28;20600;-71
2023/02/03 09:40:57;;;;;;;0.30;0.30;;;5.40;99.90;;;;;;5053862;28;20199;-70
2023/02/03 09:43:38;;;;;;;0.40;0.40;;;5.40;99.90;;;;;;5052466;28;20635;-70
2023/02/03 09:46:38;;;;;;;0.70;0.70;;;5.50;99.90;;;;;;5053941;28;20267;-71
2023/02/03 09:49:25;;;;;;;0.30;0.30;;;5.60;99.90;;;;;;5053769;28;20190;-71
2023/02/03 09:52:08;;;;;;;10.52;0.98;;;5.60;99.90;;;;;;5053423;28;20201;-70
2023/02/03 09:54:42;;;;;;;0.88;0.50;;;5.60;99.90;;;;;;5054030;28;20170;-71
2023/02/03 09:57:23;;;;;;;0.70;0.70;;;5.50;99.90;;;;;;5054022;28;20192;-70
2023/02/03 09:59:50;;;;;;;1.80;1.70;;;5.50;99.90;;;;;;5054024;28;20176;-72
2023/02/03 10:02:46;;;;;;;1.38;1.27;;;5.50;99.90;;;;;;5053873;28;20195;-73
2023/02/03 10:05:24;;;;;;;0.50;0.50;;;5.60;99.90;;;;;;5053940;28;20173;-70
2023/02/03 10:07:49;;;;;;;0.50;0.50;;;5.50;99.90;;;;;;5053405;28;20173;-70
2023/02/03 10:10:21;;;;;;;0.57;0.57;;;5.60;99.90;;;;;;5052831;28;20544;-70
2023/02/03 10:12:57;;;;;;;0.40;0.40;;;5.60;99.90;;;;;;5052387;28;20635;-73
2023/02/03 10:15:26;;;;;;;0.77;0.77;;;5.60;99.90;;;;;;5052845;28;20175;-73
2023/02/03 10:17:53;;;;;;;1.40;0.73;;;5.70;99.90;;;;;;5051976;28;20166;-73
2023/02/03 10:20:22;;;;;;;0.68;0.68;;;5.60;99.90;;;;;;5053488;28;20178;-73
2023/02/03 10:22:55;;;;;;;0.50;0.50;;;5.60;99.90;;;;;;5053192;28;20584;-73
2023/02/03 10:25:30;;;;;;;1.45;1.45;;;5.70;99.90;;;;;;5053663;28;20243;-73
2023/02/03 10:28:00;;;;;;;0.68;0.68;;;5.90;99.70;;;;;;5053445;28;20659;-72
2023/02/03 10:30:44;;;;;;;0.35;0.35;;;5.90;99.40;;;;;;5053370;28;20207;-73
2023/02/03 10:33:17;;;;;;;0.85;0.85;;;5.90;99.60;;;;;;5053243;28;20192;-73
2023/02/03 10:36:01;;;;;;;0.40;0.40;;;5.80;99.20;;;;;;5053640;28;20194;-73
2023/02/03 10:38:57;;;;;;;0.40;0.40;;;5.80;99.40;;;;;;5053306;28;20646;-72
2023/02/03 10:41:23;;;;;;;2.80;0.93;;;5.80;99.60;;;;;;5053555;28;20198;-73
2023/02/03 10:43:50;;;;;;;0.50;0.50;;;5.90;99.60;;;;;;5053120;28;20182;-72
2023/02/03 10:46:33;;;;;;;0.93;0.93;;;6.00;99.30;;;;;;5053616;28;20515;-71
2023/02/03 10:48:59;;;;;;;0.60;0.60;;;6.00;99.10;;;;;;5053034;28;20163;-71
2023/02/03 10:51:33;;;;;;;0.40;0.40;;;5.80;99.00;;;;;;5051654;28;20187;-71
2023/02/03 10:53:59;;;;;;;0.82;0.82;;;5.80;99.40;;;;;;5053038;28;20174;-71
2023/02/03 10:56:36;;;;;;;1.00;1.00;;;5.70;99.40;;;;;;5053099;28;20259;-70
2023/02/03 10:59:02;;;;;;;0.40;0.40;;;5.40;99.70;;;;;;5053177;28;20165;-70
2023/02/03 11:01:48;;;;;;;0.88;0.88;;;5.40;99.90;;;;;;5052798;28;20293;-71
2023/02/03 11:04:33;;;;;;;1.30;1.30;;;5.50;99.90;;;;;;5052934;28;20182;-71
2023/02/03 11:07:01;;;;;;;0.38;0.38;;;5.70;99.90;;;;;;5053482;28;20270;-71
2023/02/03 11:09:36;;;;;;;0.40;0.40;;;5.80;99.90;;;;;;5052890;28;20231;-70
2023/02/03 11:12:18;;;;;;;0.30;0.30;;;5.80;99.70;;;;;;5052636;28;20684;-71
2023/02/03 11:14:54;;;;;;;0.70;0.70;;;5.80;99.40;;;;;;5052958;28;20262;-71
2023/02/03 11:17:28;;;;;;;0.40;0.40;;;5.80;99.70;;;;;;5053022;28;20181;-71
2023/02/03 11:20:05;;;;;;;0.40;0.40;;;5.80;99.90;;;;;;5052956;28;20189;-71
2023/02/03 11:22:35;;;;;;;0.38;0.38;;;6.00;99.70;;;;;;5052687;28;20550;-71
2023/02/03 11:25:03;;;;;;;1.13;1.13;;;6.10;99.60;;;;;;5052834;28;20596;-71
2023/02/03 11:27:30;;;;;;;0.50;0.50;;;6.30;99.20;;;;;;5054544;28;20168;-71
2023/02/03 11:30:19;;;;;;;0.52;0.52;;;6.60;99.30;;;;;;5056345;28;20172;-71
2023/02/03 11:32:47;;;;;;;0.90;0.90;;;6.80;98.80;;;;;;5056279;28;20169;-71
2023/02/03 11:35:22;;;;;;;0.85;0.50;;;7.00;98.40;;;;;;5056232;28;20180;-71
2023/02/03 11:37:50;;;;;;;0.30;0.30;;;7.00;97.60;;;;;;5056021;28;20196;-71
2023/02/03 11:40:19;;;;;;;0.60;0.60;;;7.10;97.60;;;;;;5056098;28;20543;-71
2023/02/03 11:43:00;;;;;;;0.73;0.73;;;7.30;98.00;;;;;;5055991;28;20644;-71
2023/02/03 11:45:42;;;;;;;0.88;0.50;;;7.60;97.90;;;;;;5055857;28;20223;-71
2023/02/03 11:48:26;;;;;;;0.68;0.60;;;7.90;97.10;;;;;;5056038;28;20166;-71
2023/02/03 11:50:59;;;;;;;0.43;0.43;;;7.80;96.20;;;;;;5055792;28;20272;-71
2023/02/03 11:53:40;;;;;;;0.60;0.60;;;7.80;96.10;;;;;;5055826;28;20174;-71
2023/02/03 11:56:36;;;;;;;0.40;0.40;;;7.50;96.60;;;;;;5056014;28;20177;-71
2023/02/03 11:59:35;;;;;;;0.30;0.30;;;7.80;96.90;;;;;;5055905;28;20530;-71
2023/02/03 12:02:28;;;;;;;0.50;0.50;;;7.80;96.10;;;;;;5055394;28;20197;-71
2023/02/03 12:05:27;;;;;;;0.50;0.40;;;8.10;96.00;;;;;;5055861;28;20643;-71
2023/02/03 12:08:08;;;;;;;0.82;0.55;;;8.30;95.60;;;;;;5055538;28;20318;-71
2023/02/03 12:11:15;;;;;;;0.40;0.40;;;8.40;95.10;;;;;;5055513;28;20618;-71
2023/02/03 12:14:17;;;;;;;0.40;0.40;;;8.20;94.70;;;;;;5054315;28;20201;-70
2023/02/03 12:16:58;;;;;;;0.40;0.40;;;8.80;94.60;;;;;;5055170;28;20594;-71
2023/02/03 12:19:38;;;;;;;0.30;0.30;;;9.30;93.70;;;;;;5053776;28;20185;-71
2023/02/03 12:22:35;;;;;;;0.30;0.30;;;9.70;92.60;;;;;;5054941;28;20687;-71
2023/02/03 12:25:26;;;;;;;0.30;0.30;;;9.40;92.00;;;;;;5055477;28;20598;-71
2023/02/03 12:28:00;;;;;;;0.40;0.40;;;9.30;92.50;;;;;;5055397;28;20166;-71
2023/02/03 12:30:36;;;;;;;0.30;0.30;;;8.80;92.40;;;;;;5055086;28;20547;-71
2023/02/03 12:33:14;;;;;;;0.30;0.30;;;8.40;93.20;;;;;;5055088;28;20572;-71
2023/02/03 12:35:54;;;;;;;0.32;0.32;;;8.40;93.30;;;;;;5054965;28;20356;-71
2023/02/03 12:38:23;;;;;;;0.30;0.30;;;8.50;93.50;;;;;;5054170;28;20570;-71
2023/02/03 12:40:56;;;;;;;0.38;0.38;;;8.60;93.50;;;;;;5054792;28;20201;-71
2023/02/03 12:43:25;;;;;;;0.32;0.32;;;8.70;93.40;;;;;;5054898;28;20531;-71
2023/02/03 12:45:59;;;;;;;0.65;0.60;;;8.70;93.20;;;;;;5054910;28;20176;-71
2023/02/03 12:48:50;;;;;;;0.40;0.40;;;8.60;93.20;;;;;;5054879;28;20189;-71
2023/02/03 12:51:33;;;;;;;0.30;0.30;;;8.50;93.60;;;;;;5052627;28;20210;-70
2023/02/03 12:54:37;;;;;;;0.40;0.40;;;8.60;93.70;;;;;;5054856;28;20199;-71
2023/02/03 12:57:29;;;;;;;0.40;0.40;;;8.60;93.30;;;;;;5052799;28;20182;-71
2023/02/03 13:00:16;;;;;;;0.40;0.40;;;8.20;93.40;;;;;;5054621;28;20204;-71
2023/02/03 13:02:55;;;;;;;0.30;0.30;;;7.90;94.10;;;;;;5054348;28;20169;-72
2023/02/03 13:05:21;;;;;;;0.40;0.40;;;7.60;94.40;;;;;;5054700;28;20267;-71
2023/02/03 13:07:53;;;;;;;1.00;1.00;;;7.40;94.80;;;;;;5054464;28;20247;-71
2023/02/03 13:10:36;;;;;;;1.20;1.00;;;7.30;95.30;;;;;;5054323;28;20667;-74
2023/02/03 13:13:06;;;;;;;0.30;0.30;;;7.10;95.50;;;;;;5054396;28;20185;-72
2023/02/03 13:15:46;;;;;;;0.35;0.35;;;7.00;96.00;;;;;;5055031;28;20567;-74
2023/02/03 13:18:20;;;;;;;0.43;0.43;;;7.00;96.00;;;;;;5053972;28;20235;-71
2023/02/03 13:20:46;;;;;;;0.30;0.30;;;6.90;95.90;;;;;;5053366;28;20195;-73